createdAt,value
2019-02-02T00:02:15.299Z,2.64
2019-02-02T00:07:17.987Z,2.62
2019-02-02T00:12:20.193Z,2.62
2019-02-02T00:17:22.702Z,2.66
2019-02-02T00:22:24.999Z,2.65
2019-02-02T00:27:27.589Z,2.64
2019-02-02T00:32:29.779Z,2.62
2019-02-02T00:37:31.930Z,2.62
2019-02-02T00:42:34.853Z,2.59
2019-02-02T00:47:37.108Z,2.57
2019-02-02T00:52:39.468Z,2.55
2019-02-02T00:57:52.671Z,2.53
2019-02-02T01:02:47.398Z,2.55
2019-02-02T01:07:49.961Z,2.52
2019-02-02T01:12:53.349Z,2.50
2019-02-02T01:17:55.919Z,2.47
2019-02-02T01:22:59.095Z,2.45
2019-02-02T01:28:05.506Z,2.44
2019-02-02T01:33:06.522Z,2.45
2019-02-02T01:38:09.496Z,2.46
2019-02-02T01:43:12.143Z,2.43
2019-02-02T01:48:14.351Z,2.38
2019-02-02T01:53:17.633Z,2.38
2019-02-02T01:58:20.428Z,2.36
2019-02-02T02:03:22.921Z,2.37
2019-02-02T02:08:25.175Z,2.39
2019-02-02T02:13:27.369Z,2.39
2019-02-02T02:18:29.755Z,2.39
2019-02-02T02:23:32.285Z,2.41
2019-02-02T02:28:35.355Z,2.37
2019-02-02T02:33:37.869Z,2.38
2019-02-02T02:38:40.072Z,2.39
2019-02-02T02:43:42.356Z,2.38
2019-02-02T02:48:44.883Z,2.35
2019-02-02T02:53:47.074Z,2.31
2019-02-02T02:58:50.108Z,2.30
2019-02-02T03:03:52.279Z,2.29
2019-02-02T03:08:55.115Z,2.26
2019-02-02T03:13:57.920Z,2.24
2019-02-02T03:19:00.391Z,2.20
2019-02-02T03:24:02.553Z,2.18
2019-02-02T03:29:05.071Z,2.17
2019-02-02T03:34:07.541Z,2.16
2019-02-02T03:39:11.271Z,2.18
2019-02-02T03:44:13.767Z,2.19
2019-02-02T03:49:16.368Z,2.20
2019-02-02T03:54:19.361Z,2.16
2019-02-02T03:59:21.565Z,2.19
2019-02-02T04:04:23.790Z,2.20
2019-02-02T04:09:25.886Z,2.20
2019-02-02T04:14:28.071Z,2.22
2019-02-02T04:19:30.380Z,2.22
2019-02-02T04:24:33.289Z,2.22
2019-02-02T04:29:35.467Z,2.18
2019-02-02T04:34:37.688Z,2.16
2019-02-02T04:39:40.795Z,2.18
2019-02-02T04:44:43.055Z,2.18
2019-02-02T04:49:45.466Z,2.15
2019-02-02T04:54:47.696Z,2.15
2019-02-02T04:59:49.846Z,2.13
2019-02-02T05:04:52.036Z,2.14
2019-02-02T05:09:54.536Z,2.18
2019-02-02T05:14:56.853Z,2.18
2019-02-02T05:19:59.037Z,2.13
2019-02-02T05:25:01.291Z,2.10
2019-02-02T05:30:08.687Z,2.10
2019-02-02T05:35:11.103Z,2.11
2019-02-02T05:40:15.020Z,2.14
2019-02-02T05:45:19.279Z,2.14
2019-02-02T05:50:22.623Z,2.17
2019-02-02T05:55:25.187Z,2.18
2019-02-02T06:00:36.971Z,2.18
2019-02-02T06:05:39.193Z,2.19
2019-02-02T06:10:42.776Z,2.21
2019-02-02T06:15:45.298Z,2.22
2019-02-02T06:20:47.505Z,2.22
2019-02-02T06:25:49.712Z,2.22
2019-02-02T06:30:51.944Z,2.23
2019-02-02T06:35:54.470Z,2.24
2019-02-02T06:41:00.668Z,2.26
2019-02-02T06:46:03.890Z,2.25
2019-02-02T06:51:06.827Z,2.22
2019-02-02T06:56:10.156Z,2.23
2019-02-02T07:01:12.651Z,2.18
2019-02-02T07:06:15.970Z,2.20
2019-02-02T07:11:18.124Z,2.17
2019-02-02T07:16:20.928Z,2.15
2019-02-02T07:21:23.191Z,2.17
2019-02-02T07:26:25.739Z,2.20
2019-02-02T07:31:28.324Z,2.22
2019-02-02T07:36:31.043Z,2.25
2019-02-02T07:41:33.218Z,2.26
2019-02-02T07:46:35.684Z,2.28
2019-02-02T07:51:37.894Z,2.29
2019-02-02T07:56:40.060Z,2.25
2019-02-02T08:01:42.348Z,2.27
2019-02-02T08:06:46.265Z,2.30
2019-02-02T08:11:49.080Z,2.32
2019-02-02T08:16:52.662Z,2.36
2019-02-02T08:21:55.686Z,2.36
2019-02-02T08:26:57.961Z,2.40
2019-02-02T08:32:01.259Z,2.42
2019-02-02T08:37:04.187Z,2.40
2019-02-02T08:42:07.421Z,2.44
2019-02-02T08:47:10.621Z,2.44
2019-02-02T08:52:14.115Z,2.45
2019-02-02T08:57:17.361Z,2.45
2019-02-02T09:02:19.980Z,2.46
2019-02-02T09:07:22.469Z,2.49
2019-02-02T09:12:25.145Z,2.51
2019-02-02T09:17:27.389Z,2.52
2019-02-02T09:22:29.548Z,2.55
2019-02-02T09:27:31.974Z,2.55
2019-02-02T09:32:34.134Z,2.61
2019-02-02T09:37:36.318Z,2.64
2019-02-02T09:42:38.468Z,2.68
2019-02-02T09:47:41.282Z,2.68
2019-02-02T09:52:44.234Z,2.70
2019-02-02T09:57:47.304Z,2.71
2019-02-02T10:02:50.029Z,2.74
2019-02-02T10:07:52.933Z,2.76
2019-02-02T10:12:55.624Z,2.76
2019-02-02T10:17:57.999Z,2.79
2019-02-02T10:23:00.783Z,2.80
2019-02-02T10:28:03.973Z,2.79
2019-02-02T10:33:08.020Z,2.83
2019-02-02T10:38:11.171Z,2.85
2019-02-02T10:43:13.758Z,2.86
2019-02-02T10:48:16.198Z,2.92
2019-02-02T10:53:18.382Z,2.94
2019-02-02T10:58:21.142Z,2.96
2019-02-02T11:03:23.934Z,2.94
2019-02-02T11:08:26.591Z,2.90
2019-02-02T11:13:28.869Z,2.90
2019-02-02T11:18:31.721Z,2.88
2019-02-02T11:23:34.795Z,2.91
2019-02-02T11:28:37.349Z,2.91
2019-02-02T11:33:39.626Z,2.91
2019-02-02T11:38:41.929Z,2.92
2019-02-02T11:43:44.138Z,2.90
2019-02-02T11:48:46.572Z,2.92
2019-02-02T11:53:49.160Z,2.91
2019-02-02T11:58:51.641Z,2.94
2019-02-02T12:03:54.116Z,2.97
2019-02-02T12:08:56.604Z,3.00
2019-02-02T12:13:58.737Z,2.97
2019-02-02T12:19:00.894Z,2.95
2019-02-02T12:24:13.275Z,2.92
2019-02-02T12:29:08.431Z,2.91
2019-02-02T12:34:14.089Z,2.90
2019-02-02T12:39:16.563Z,2.90
2019-02-02T12:44:18.743Z,2.87
2019-02-02T12:49:21.558Z,2.85
2019-02-02T12:54:23.743Z,2.85
2019-02-02T12:59:25.971Z,2.88
2019-02-02T13:04:28.777Z,2.91
2019-02-02T13:09:30.935Z,2.85
2019-02-02T13:14:33.716Z,2.85
2019-02-02T13:19:36.593Z,2.83
2019-02-02T13:24:38.791Z,2.82
2019-02-02T13:29:40.980Z,2.82
2019-02-02T13:34:44.028Z,2.77
2019-02-02T13:39:46.795Z,2.62
2019-02-02T13:44:49.290Z,2.52
2019-02-02T13:49:52.233Z,2.48
2019-02-02T13:54:54.409Z,2.44
2019-02-02T13:59:56.718Z,2.43
2019-02-02T14:05:00.396Z,2.44
2019-02-02T14:10:04.478Z,2.42
2019-02-02T14:15:09.289Z,2.39
2019-02-02T14:20:12.698Z,2.40
2019-02-02T14:25:17.403Z,2.44
2019-02-02T14:30:23.019Z,2.39
2019-02-02T14:35:26.496Z,2.41
2019-02-02T14:40:29.388Z,2.39
2019-02-02T14:45:32.265Z,2.39
2019-02-02T14:50:34.445Z,2.34
2019-02-02T14:55:36.957Z,2.33
2019-02-02T15:00:39.359Z,2.35
2019-02-02T15:05:43.331Z,2.33
2019-02-02T15:10:46.291Z,2.32
2019-02-02T15:15:48.457Z,2.29
2019-02-02T15:20:50.673Z,2.31
2019-02-02T15:25:53.364Z,2.31
2019-02-02T15:30:55.838Z,2.26
2019-02-02T15:35:58.090Z,2.15
2019-02-02T15:41:00.333Z,2.16
2019-02-02T15:46:03.008Z,2.22
2019-02-02T15:51:06.309Z,2.20
2019-02-02T15:56:09.145Z,2.16
2019-02-02T16:01:12.229Z,2.17
2019-02-02T16:06:15.144Z,2.18
2019-02-02T16:11:17.428Z,2.22
2019-02-02T16:16:20.159Z,2.23
2019-02-02T16:21:22.627Z,2.22
2019-02-02T16:26:26.231Z,2.23
2019-02-02T16:31:29.140Z,2.24
2019-02-02T16:36:31.470Z,2.27
2019-02-02T16:41:34.293Z,2.27
2019-02-02T16:46:37.915Z,2.23
2019-02-02T16:51:40.804Z,2.13
2019-02-02T16:56:44.642Z,2.05
2019-02-02T17:01:46.826Z,2.05
2019-02-02T17:06:49.117Z,1.98
2019-02-02T17:11:51.408Z,2.01
2019-02-02T17:16:53.717Z,2.03
2019-02-02T17:21:56.111Z,1.99
2019-02-02T17:26:58.818Z,1.97
2019-02-02T17:32:01.393Z,2.01
2019-02-02T17:37:03.897Z,2.01
2019-02-02T17:42:06.787Z,1.98
2019-02-02T17:47:09.601Z,2.00
2019-02-02T17:52:11.814Z,2.02
2019-02-02T17:57:14.461Z,2.02
2019-02-02T18:02:16.762Z,1.99
2019-02-02T18:07:19.393Z,1.93
2019-02-02T18:12:22.348Z,1.93
2019-02-02T18:17:25.356Z,1.95
2019-02-02T18:22:27.825Z,1.98
2019-02-02T18:27:31.707Z,2.04
2019-02-02T18:32:34.144Z,1.97
2019-02-02T18:37:36.336Z,1.98
2019-02-02T18:42:38.651Z,1.99
2019-02-02T18:47:41.711Z,2.03
2019-02-02T18:52:45.473Z,2.03
2019-02-02T18:57:48.332Z,2.03
2019-02-02T19:02:51.070Z,1.97
2019-02-02T19:07:53.643Z,1.92
2019-02-02T19:12:55.858Z,1.90
2019-02-02T19:17:59.500Z,1.86
2019-02-02T19:23:02.245Z,1.80
2019-02-02T19:28:06.784Z,1.85
2019-02-02T19:33:08.941Z,1.86
2019-02-02T19:38:11.222Z,1.95
2019-02-02T19:43:13.508Z,1.95
2019-02-02T19:48:15.711Z,1.93
2019-02-02T19:53:18.303Z,1.85
2019-02-02T19:58:20.557Z,1.74
2019-02-02T20:03:23.422Z,1.67
2019-02-02T20:08:26.918Z,1.69
2019-02-02T20:13:29.238Z,1.71
2019-02-02T20:18:32.118Z,1.68
2019-02-02T20:23:38.081Z,1.71
2019-02-02T20:28:38.553Z,1.68
2019-02-02T20:33:40.735Z,1.72
2019-02-02T20:38:43.475Z,1.73
2019-02-02T20:43:45.698Z,1.78
2019-02-02T20:48:48.384Z,1.85
2019-02-02T20:53:50.566Z,1.78
2019-02-02T20:58:52.965Z,1.85
2019-02-02T21:03:55.625Z,1.89
2019-02-02T21:08:58.200Z,1.87
2019-02-02T21:14:01.058Z,1.87
2019-02-02T21:19:03.751Z,1.88
2019-02-02T21:24:06.166Z,1.87
2019-02-02T21:29:08.860Z,1.88
2019-02-02T21:34:12.906Z,1.90
2019-02-02T21:39:16.078Z,1.92
2019-02-02T21:44:18.973Z,1.91
2019-02-02T21:49:21.379Z,1.88
2019-02-02T21:54:25.818Z,1.90
2019-02-02T21:59:29.531Z,1.89
2019-02-02T22:04:31.972Z,1.91
2019-02-02T22:09:34.826Z,1.92
2019-02-02T22:14:37.716Z,1.91
2019-02-02T22:19:40.492Z,1.94
2019-02-02T22:24:42.855Z,1.95
2019-02-02T22:29:46.358Z,1.98
2019-02-02T22:34:48.933Z,2.03
2019-02-02T22:39:51.182Z,1.95
2019-02-02T22:44:53.770Z,1.96
2019-02-02T22:49:56.222Z,1.97
2019-02-02T22:54:58.788Z,1.96
2019-02-02T23:00:01.682Z,2.01
2019-02-02T23:05:52.813Z,2.07
2019-02-02T23:11:23.008Z,2.03
2019-02-02T23:16:27.708Z,2.05
2019-02-02T23:21:31.124Z,2.03
2019-02-02T23:26:33.596Z,2.02
2019-02-02T23:31:36.819Z,1.99
2019-02-02T23:36:51.095Z,2.03
2019-02-02T23:41:44.636Z,2.02
2019-02-02T23:46:47.051Z,2.03
2019-02-02T23:51:49.268Z,2.05
2019-02-02T23:56:51.737Z,2.00
